sensor_id;sensor_type;location;lat;lon;timestamp;temperature;humidity
67870;DHT22;54673;52.262;6.830;2023-06-24T00:00:27;25.50;47.90
67870;DHT22;54673;52.262;6.830;2023-06-24T00:02:52;25.50;48.00
67870;DHT22;54673;52.262;6.830;2023-06-24T00:05:19;25.50;48.00
67870;DHT22;54673;52.262;6.830;2023-06-24T00:07:45;25.50;48.00
67870;DHT22;54673;52.262;6.830;2023-06-24T00:10:14;25.40;47.90
67870;DHT22;54673;52.262;6.830;2023-06-24T00:12:40;25.40;48.00
67870;DHT22;54673;52.262;6.830;2023-06-24T00:15:07;25.40;47.80
67870;DHT22;54673;52.262;6.830;2023-06-24T00:17:35;25.40;47.90
67870;DHT22;54673;52.262;6.830;2023-06-24T00:20:01;25.40;47.90
67870;DHT22;54673;52.262;6.830;2023-06-24T00:22:29;25.40;47.90
67870;DHT22;54673;52.262;6.830;2023-06-24T00:24:55;25.40;47.80
67870;DHT22;54673;52.262;6.830;2023-06-24T00:27:22;25.40;47.80
67870;DHT22;54673;52.262;6.830;2023-06-24T00:29:47;25.40;47.80
67870;DHT22;54673;52.262;6.830;2023-06-24T00:32:13;25.40;47.80
67870;DHT22;54673;52.262;6.830;2023-06-24T00:34:38;25.30;47.70
67870;DHT22;54673;52.262;6.830;2023-06-24T00:37:09;25.30;47.70
67870;DHT22;54673;52.262;6.830;2023-06-24T00:39:34;25.30;47.70
67870;DHT22;54673;52.262;6.830;2023-06-24T00:42:00;25.30;47.60
67870;DHT22;54673;52.262;6.830;2023-06-24T00:44:26;25.30;47.70
67870;DHT22;54673;52.262;6.830;2023-06-24T00:46:51;25.30;47.70
67870;DHT22;54673;52.262;6.830;2023-06-24T00:49:17;25.30;47.70
67870;DHT22;54673;52.262;6.830;2023-06-24T00:51:43;25.30;48.60
67870;DHT22;54673;52.262;6.830;2023-06-24T00:54:13;25.20;47.80
67870;DHT22;54673;52.262;6.830;2023-06-24T00:56:38;25.20;47.70
67870;DHT22;54673;52.262;6.830;2023-06-24T00:59:04;25.30;47.80
67870;DHT22;54673;52.262;6.830;2023-06-24T01:01:34;25.30;47.80
67870;DHT22;54673;52.262;6.830;2023-06-24T01:04:01;25.30;47.70
67870;DHT22;54673;52.262;6.830;2023-06-24T01:06:28;25.20;47.70
67870;DHT22;54673;52.262;6.830;2023-06-24T01:08:55;25.20;47.70
67870;DHT22;54673;52.262;6.830;2023-06-24T01:11:22;25.20;47.60
67870;DHT22;54673;52.262;6.830;2023-06-24T01:13:48;25.20;47.60
67870;DHT22;54673;52.262;6.830;2023-06-24T01:17:05;25.20;47.60
67870;DHT22;54673;52.262;6.830;2023-06-24T01:30:49;25.10;47.50
67870;DHT22;54673;52.262;6.830;2023-06-24T01:33:32;25.10;47.50
67870;DHT22;54673;52.262;6.830;2023-06-24T01:36:01;25.10;47.50
67870;DHT22;54673;52.262;6.830;2023-06-24T01:38:36;25.10;47.50
67870;DHT22;54673;52.262;6.830;2023-06-24T01:41:06;25.10;47.50
67870;DHT22;54673;52.262;6.830;2023-06-24T01:43:33;25.10;47.50
67870;DHT22;54673;52.262;6.830;2023-06-24T01:45:59;25.10;47.60
67870;DHT22;54673;52.262;6.830;2023-06-24T01:48:28;25.10;47.50
67870;DHT22;54673;52.262;6.830;2023-06-24T01:53:20;25.00;47.50
67870;DHT22;54673;52.262;6.830;2023-06-24T01:55:48;25.10;47.50
67870;DHT22;54673;52.262;6.830;2023-06-24T01:58:17;25.00;47.40
67870;DHT22;54673;52.262;6.830;2023-06-24T02:00:43;25.10;47.50
67870;DHT22;54673;52.262;6.830;2023-06-24T02:03:10;25.10;47.50
67870;DHT22;54673;52.262;6.830;2023-06-24T02:05:37;25.00;47.40
67870;DHT22;54673;52.262;6.830;2023-06-24T02:08:07;25.00;47.40
67870;DHT22;54673;52.262;6.830;2023-06-24T02:10:36;25.00;47.40
67870;DHT22;54673;52.262;6.830;2023-06-24T02:13:04;25.00;47.40
67870;DHT22;54673;52.262;6.830;2023-06-24T02:15:29;25.00;47.40
67870;DHT22;54673;52.262;6.830;2023-06-24T02:17:56;24.90;47.40
67870;DHT22;54673;52.262;6.830;2023-06-24T02:20:23;24.90;47.30
67870;DHT22;54673;52.262;6.830;2023-06-24T02:22:52;24.90;47.30
67870;DHT22;54673;52.262;6.830;2023-06-24T02:25:19;24.90;47.30
67870;DHT22;54673;52.262;6.830;2023-06-24T02:27:45;24.90;47.40
67870;DHT22;54673;52.262;6.830;2023-06-24T02:30:11;24.90;47.40
67870;DHT22;54673;52.262;6.830;2023-06-24T02:32:38;24.90;47.30
67870;DHT22;54673;52.262;6.830;2023-06-24T02:35:04;24.90;47.30
67870;DHT22;54673;52.262;6.830;2023-06-24T02:37:30;24.90;47.40
67870;DHT22;54673;52.262;6.830;2023-06-24T02:39:56;24.90;47.40
67870;DHT22;54673;52.262;6.830;2023-06-24T02:42:22;24.90;47.30
67870;DHT22;54673;52.262;6.830;2023-06-24T02:44:48;24.80;47.30
67870;DHT22;54673;52.262;6.830;2023-06-24T02:47:15;24.90;47.40
67870;DHT22;54673;52.262;6.830;2023-06-24T02:49:43;24.90;47.40
67870;DHT22;54673;52.262;6.830;2023-06-24T02:52:12;24.90;47.40
67870;DHT22;54673;52.262;6.830;2023-06-24T02:54:38;24.90;47.30
67870;DHT22;54673;52.262;6.830;2023-06-24T02:57:05;24.80;47.30
67870;DHT22;54673;52.262;6.830;2023-06-24T02:59:32;24.80;47.40
67870;DHT22;54673;52.262;6.830;2023-06-24T03:01:58;24.80;47.50
67870;DHT22;54673;52.262;6.830;2023-06-24T03:04:25;24.80;47.60
67870;DHT22;54673;52.262;6.830;2023-06-24T03:06:51;24.80;47.50
67870;DHT22;54673;52.262;6.830;2023-06-24T03:09:18;24.80;47.50
67870;DHT22;54673;52.262;6.830;2023-06-24T03:11:44;24.80;47.50
67870;DHT22;54673;52.262;6.830;2023-06-24T03:14:10;24.80;47.50
67870;DHT22;54673;52.262;6.830;2023-06-24T03:16:37;24.80;47.60
67870;DHT22;54673;52.262;6.830;2023-06-24T03:19:04;24.80;47.60
67870;DHT22;54673;52.262;6.830;2023-06-24T03:21:30;24.80;47.60
67870;DHT22;54673;52.262;6.830;2023-06-24T03:23:56;24.80;47.60
67870;DHT22;54673;52.262;6.830;2023-06-24T03:26:22;24.80;47.70
67870;DHT22;54673;52.262;6.830;2023-06-24T03:28:47;24.80;47.70
67870;DHT22;54673;52.262;6.830;2023-06-24T03:31:14;24.80;47.60
67870;DHT22;54673;52.262;6.830;2023-06-24T03:33:43;24.80;47.60
67870;DHT22;54673;52.262;6.830;2023-06-24T03:36:10;24.80;47.70
67870;DHT22;54673;52.262;6.830;2023-06-24T03:38:36;24.80;47.70
67870;DHT22;54673;52.262;6.830;2023-06-24T03:41:02;24.80;47.90
67870;DHT22;54673;52.262;6.830;2023-06-24T03:43:27;24.80;47.90
67870;DHT22;54673;52.262;6.830;2023-06-24T03:45:53;24.80;48.00
67870;DHT22;54673;52.262;6.830;2023-06-24T03:48:19;24.80;47.90
67870;DHT22;54673;52.262;6.830;2023-06-24T03:50:44;24.80;47.90
67870;DHT22;54673;52.262;6.830;2023-06-24T03:53:10;24.80;47.90
67870;DHT22;54673;52.262;6.830;2023-06-24T03:55:35;24.80;47.90
67870;DHT22;54673;52.262;6.830;2023-06-24T03:58:01;24.80;48.00
67870;DHT22;54673;52.262;6.830;2023-06-24T04:00:26;24.80;48.00
67870;DHT22;54673;52.262;6.830;2023-06-24T04:02:52;24.80;48.00
67870;DHT22;54673;52.262;6.830;2023-06-24T04:05:19;24.80;48.00
67870;DHT22;54673;52.262;6.830;2023-06-24T04:07:45;24.80;48.00
67870;DHT22;54673;52.262;6.830;2023-06-24T04:10:16;24.80;48.10
67870;DHT22;54673;52.262;6.830;2023-06-24T04:12:43;24.80;48.20
67870;DHT22;54673;52.262;6.830;2023-06-24T04:15:09;24.80;48.20
67870;DHT22;54673;52.262;6.830;2023-06-24T04:17:35;24.80;48.40
67870;DHT22;54673;52.262;6.830;2023-06-24T04:20:01;24.80;48.40
67870;DHT22;54673;52.262;6.830;2023-06-24T04:22:29;24.80;48.40
67870;DHT22;54673;52.262;6.830;2023-06-24T04:24:55;24.80;48.50
67870;DHT22;54673;52.262;6.830;2023-06-24T04:27:20;24.80;48.50
67870;DHT22;54673;52.262;6.830;2023-06-24T04:29:46;24.80;48.40
67870;DHT22;54673;52.262;6.830;2023-06-24T04:32:11;24.80;48.40
67870;DHT22;54673;52.262;6.830;2023-06-24T04:34:37;24.80;48.50
67870;DHT22;54673;52.262;6.830;2023-06-24T04:37:03;24.80;48.50
67870;DHT22;54673;52.262;6.830;2023-06-24T04:39:28;24.90;48.40
67870;DHT22;54673;52.262;6.830;2023-06-24T04:41:54;24.90;48.40
67870;DHT22;54673;52.262;6.830;2023-06-24T04:44:19;24.90;48.40
67870;DHT22;54673;52.262;6.830;2023-06-24T04:46:45;24.90;48.30
67870;DHT22;54673;52.262;6.830;2023-06-24T04:49:11;24.90;48.50
67870;DHT22;54673;52.262;6.830;2023-06-24T04:51:37;24.90;48.50
67870;DHT22;54673;52.262;6.830;2023-06-24T04:54:02;24.90;48.60
67870;DHT22;54673;52.262;6.830;2023-06-24T04:56:29;24.90;49.50
67870;DHT22;54673;52.262;6.830;2023-06-24T04:58:55;24.90;48.60
67870;DHT22;54673;52.262;6.830;2023-06-24T05:01:21;24.90;48.60
67870;DHT22;54673;52.262;6.830;2023-06-24T05:03:47;24.90;48.70
67870;DHT22;54673;52.262;6.830;2023-06-24T05:06:12;24.90;48.70
67870;DHT22;54673;52.262;6.830;2023-06-24T05:08:38;25.00;48.80
67870;DHT22;54673;52.262;6.830;2023-06-24T05:11:04;25.00;48.80
67870;DHT22;54673;52.262;6.830;2023-06-24T05:13:29;24.90;48.80
67870;DHT22;54673;52.262;6.830;2023-06-24T05:15:55;25.00;48.80
67870;DHT22;54673;52.262;6.830;2023-06-24T05:18:20;25.00;48.70
67870;DHT22;54673;52.262;6.830;2023-06-24T05:20:46;25.00;48.70
67870;DHT22;54673;52.262;6.830;2023-06-24T05:23:11;25.10;48.80
67870;DHT22;54673;52.262;6.830;2023-06-24T05:25:37;25.10;48.80
67870;DHT22;54673;52.262;6.830;2023-06-24T05:28:03;25.10;48.70
67870;DHT22;54673;52.262;6.830;2023-06-24T05:30:28;25.10;48.70
67870;DHT22;54673;52.262;6.830;2023-06-24T05:32:54;25.10;48.70
67870;DHT22;54673;52.262;6.830;2023-06-24T05:35:19;25.10;48.70
67870;DHT22;54673;52.262;6.830;2023-06-24T05:37:45;25.10;48.80
67870;DHT22;54673;52.262;6.830;2023-06-24T05:40:11;25.10;48.70
67870;DHT22;54673;52.262;6.830;2023-06-24T05:42:38;25.10;48.70
67870;DHT22;54673;52.262;6.830;2023-06-24T05:45:04;25.20;48.70
67870;DHT22;54673;52.262;6.830;2023-06-24T05:47:31;25.20;48.60
67870;DHT22;54673;52.262;6.830;2023-06-24T05:49:57;25.10;48.60
67870;DHT22;54673;52.262;6.830;2023-06-24T05:52:22;25.10;48.60
67870;DHT22;54673;52.262;6.830;2023-06-24T05:54:48;25.10;48.50
67870;DHT22;54673;52.262;6.830;2023-06-24T05:57:14;25.20;48.60
67870;DHT22;54673;52.262;6.830;2023-06-24T05:59:39;25.20;48.70
67870;DHT22;54673;52.262;6.830;2023-06-24T06:02:05;25.20;49.50
67870;DHT22;54673;52.262;6.830;2023-06-24T06:04:31;25.70;48.90
67870;DHT22;54673;52.262;6.830;2023-06-24T06:06:56;25.20;48.60
67870;DHT22;54673;52.262;6.830;2023-06-24T06:09:22;25.20;48.50
67870;DHT22;54673;52.262;6.830;2023-06-24T06:11:48;25.20;48.50
67870;DHT22;54673;52.262;6.830;2023-06-24T06:14:13;25.30;48.60
67870;DHT22;54673;52.262;6.830;2023-06-24T06:16:39;25.30;48.60
67870;DHT22;54673;52.262;6.830;2023-06-24T06:19:05;25.30;48.50
67870;DHT22;54673;52.262;6.830;2023-06-24T06:21:31;25.30;48.50
67870;DHT22;54673;52.262;6.830;2023-06-24T06:23:57;25.40;48.80
67870;DHT22;54673;52.262;6.830;2023-06-24T06:26:23;25.40;48.70
67870;DHT22;54673;52.262;6.830;2023-06-24T06:28:49;25.40;48.60
67870;DHT22;54673;52.262;6.830;2023-06-24T06:31:15;25.50;48.70
67870;DHT22;54673;52.262;6.830;2023-06-24T06:33:41;25.50;48.80
67870;DHT22;54673;52.262;6.830;2023-06-24T06:36:06;25.60;48.90
67870;DHT22;54673;52.262;6.830;2023-06-24T06:38:33;25.60;48.90
67870;DHT22;54673;52.262;6.830;2023-06-24T06:40:59;25.60;48.80
67870;DHT22;54673;52.262;6.830;2023-06-24T06:43:24;25.60;48.80
67870;DHT22;54673;52.262;6.830;2023-06-24T06:45:50;25.60;48.80
67870;DHT22;54673;52.262;6.830;2023-06-24T06:48:16;25.60;48.70
67870;DHT22;54673;52.262;6.830;2023-06-24T06:50:41;25.60;48.60
67870;DHT22;54673;52.262;6.830;2023-06-24T06:53:07;25.70;48.70
67870;DHT22;54673;52.262;6.830;2023-06-24T06:55:32;25.70;48.50
67870;DHT22;54673;52.262;6.830;2023-06-24T06:57:58;25.70;48.60
67870;DHT22;54673;52.262;6.830;2023-06-24T07:00:23;25.70;48.50
67870;DHT22;54673;52.262;6.830;2023-06-24T07:02:49;25.70;48.60
67870;DHT22;54673;52.262;6.830;2023-06-24T07:05:15;25.70;48.60
67870;DHT22;54673;52.262;6.830;2023-06-24T07:07:40;25.80;48.60
67870;DHT22;54673;52.262;6.830;2023-06-24T07:10:07;25.70;48.50
67870;DHT22;54673;52.262;6.830;2023-06-24T07:12:33;25.80;48.50
67870;DHT22;54673;52.262;6.830;2023-06-24T07:14:58;25.80;48.50
67870;DHT22;54673;52.262;6.830;2023-06-24T07:17:24;25.80;48.40
67870;DHT22;54673;52.262;6.830;2023-06-24T07:19:49;25.80;48.50
67870;DHT22;54673;52.262;6.830;2023-06-24T07:22:15;25.80;48.60
67870;DHT22;54673;52.262;6.830;2023-06-24T07:24:41;25.80;48.60
67870;DHT22;54673;52.262;6.830;2023-06-24T07:27:07;25.90;48.70
67870;DHT22;54673;52.262;6.830;2023-06-24T07:29:33;25.90;48.60
67870;DHT22;54673;52.262;6.830;2023-06-24T07:31:59;25.80;48.60
67870;DHT22;54673;52.262;6.830;2023-06-24T07:34:24;25.90;48.50
67870;DHT22;54673;52.262;6.830;2023-06-24T07:36:50;25.90;48.50
67870;DHT22;54673;52.262;6.830;2023-06-24T07:39:16;25.90;48.40
67870;DHT22;54673;52.262;6.830;2023-06-24T07:41:42;25.90;48.40
67870;DHT22;54673;52.262;6.830;2023-06-24T07:44:08;25.90;48.30
67870;DHT22;54673;52.262;6.830;2023-06-24T07:46:34;25.90;48.40
67870;DHT22;54673;52.262;6.830;2023-06-24T07:49:00;25.90;48.40
67870;DHT22;54673;52.262;6.830;2023-06-24T07:51:26;25.90;49.30
67870;DHT22;54673;52.262;6.830;2023-06-24T07:53:51;25.90;48.40
67870;DHT22;54673;52.262;6.830;2023-06-24T07:56:17;25.90;48.40
67870;DHT22;54673;52.262;6.830;2023-06-24T07:58:43;25.90;49.40
67870;DHT22;54673;52.262;6.830;2023-06-24T08:01:08;25.90;48.60
67870;DHT22;54673;52.262;6.830;2023-06-24T08:03:34;25.90;48.50
67870;DHT22;54673;52.262;6.830;2023-06-24T08:06:02;25.90;48.50
67870;DHT22;54673;52.262;6.830;2023-06-24T08:08:28;25.90;48.50
67870;DHT22;54673;52.262;6.830;2023-06-24T08:10:53;25.90;48.40
67870;DHT22;54673;52.262;6.830;2023-06-24T08:13:19;25.90;48.30
67870;DHT22;54673;52.262;6.830;2023-06-24T08:15:44;25.90;48.30
67870;DHT22;54673;52.262;6.830;2023-06-24T08:18:10;25.90;48.30
67870;DHT22;54673;52.262;6.830;2023-06-24T08:20:36;25.90;48.30
67870;DHT22;54673;52.262;6.830;2023-06-24T08:23:01;25.90;48.20
67870;DHT22;54673;52.262;6.830;2023-06-24T08:25:27;25.90;48.00
67870;DHT22;54673;52.262;6.830;2023-06-24T08:27:53;25.40;47.70
67870;DHT22;54673;52.262;6.830;2023-06-24T08:30:18;25.90;47.90
67870;DHT22;54673;52.262;6.830;2023-06-24T08:32:44;25.90;47.90
67870;DHT22;54673;52.262;6.830;2023-06-24T08:35:10;25.90;47.90
67870;DHT22;54673;52.262;6.830;2023-06-24T08:37:36;25.90;47.90
67870;DHT22;54673;52.262;6.830;2023-06-24T08:40:03;26.00;48.00
67870;DHT22;54673;52.262;6.830;2023-06-24T08:42:30;26.00;48.00
67870;DHT22;54673;52.262;6.830;2023-06-24T08:44:55;26.00;47.90
67870;DHT22;54673;52.262;6.830;2023-06-24T08:47:24;26.00;47.80
67870;DHT22;54673;52.262;6.830;2023-06-24T08:49:53;26.00;47.90
67870;DHT22;54673;52.262;6.830;2023-06-24T08:52:25;26.00;47.90
67870;DHT22;54673;52.262;6.830;2023-06-24T08:54:52;26.00;47.90
67870;DHT22;54673;52.262;6.830;2023-06-24T08:57:20;26.00;47.90
67870;DHT22;54673;52.262;6.830;2023-06-24T08:59:46;26.10;48.00
67870;DHT22;54673;52.262;6.830;2023-06-24T09:02:11;26.10;48.10
67870;DHT22;54673;52.262;6.830;2023-06-24T09:04:39;26.10;47.90
67870;DHT22;54673;52.262;6.830;2023-06-24T09:07:05;26.10;47.90
67870;DHT22;54673;52.262;6.830;2023-06-24T09:09:44;26.00;47.80
67870;DHT22;54673;52.262;6.830;2023-06-24T09:12:12;26.00;47.80
67870;DHT22;54673;52.262;6.830;2023-06-24T09:14:38;26.00;47.80
67870;DHT22;54673;52.262;6.830;2023-06-24T09:17:04;26.00;47.80
67870;DHT22;54673;52.262;6.830;2023-06-24T09:19:30;26.00;47.70
67870;DHT22;54673;52.262;6.830;2023-06-24T09:22:02;25.90;47.60
67870;DHT22;54673;52.262;6.830;2023-06-24T09:24:30;25.90;47.70
67870;DHT22;54673;52.262;6.830;2023-06-24T09:26:56;25.80;47.80
67870;DHT22;54673;52.262;6.830;2023-06-24T09:29:32;25.90;47.80
67870;DHT22;54673;52.262;6.830;2023-06-24T09:31:58;25.90;47.90
67870;DHT22;54673;52.262;6.830;2023-06-24T09:34:26;25.90;47.60
67870;DHT22;54673;52.262;6.830;2023-06-24T09:36:53;25.90;47.70
67870;DHT22;54673;52.262;6.830;2023-06-24T09:39:20;26.00;47.80
67870;DHT22;54673;52.262;6.830;2023-06-24T09:42:00;26.00;47.70
67870;DHT22;54673;52.262;6.830;2023-06-24T09:44:27;26.00;47.40
67870;DHT22;54673;52.262;6.830;2023-06-24T09:46:52;26.00;47.20
67870;DHT22;54673;52.262;6.830;2023-06-24T09:49:18;26.00;46.70
67870;DHT22;54673;52.262;6.830;2023-06-24T09:51:55;25.90;46.60
67870;DHT22;54673;52.262;6.830;2023-06-24T09:54:25;25.90;46.40
67870;DHT22;54673;52.262;6.830;2023-06-24T09:56:52;25.90;46.40
67870;DHT22;54673;52.262;6.830;2023-06-24T09:59:19;25.90;46.50
67870;DHT22;54673;52.262;6.830;2023-06-24T10:01:46;25.90;46.50
67870;DHT22;54673;52.262;6.830;2023-06-24T10:04:19;26.00;46.60
67870;DHT22;54673;52.262;6.830;2023-06-24T10:06:45;26.00;46.50
67870;DHT22;54673;52.262;6.830;2023-06-24T10:09:11;26.10;46.70
67870;DHT22;54673;52.262;6.830;2023-06-24T10:11:39;26.10;46.70
67870;DHT22;54673;52.262;6.830;2023-06-24T10:14:05;26.10;46.80
67870;DHT22;54673;52.262;6.830;2023-06-24T10:16:30;26.10;46.70
67870;DHT22;54673;52.262;6.830;2023-06-24T10:19:03;26.20;46.70
67870;DHT22;54673;52.262;6.830;2023-06-24T10:21:51;26.20;46.30
67870;DHT22;54673;52.262;6.830;2023-06-24T10:24:37;26.10;46.00
67870;DHT22;54673;52.262;6.830;2023-06-24T10:29:44;26.10;46.00
67870;DHT22;54673;52.262;6.830;2023-06-24T10:32:10;26.20;45.90
67870;DHT22;54673;52.262;6.830;2023-06-24T10:39:37;26.20;45.40
67870;DHT22;54673;52.262;6.830;2023-06-24T10:45:00;26.20;44.60
67870;DHT22;54673;52.262;6.830;2023-06-24T10:47:27;26.20;44.10
67870;DHT22;54673;52.262;6.830;2023-06-24T10:49:53;26.10;43.40
67870;DHT22;54673;52.262;6.830;2023-06-24T10:52:21;26.10;42.70
67870;DHT22;54673;52.262;6.830;2023-06-24T10:54:48;26.00;41.50
67870;DHT22;54673;52.262;6.830;2023-06-24T10:57:13;26.00;41.10
67870;DHT22;54673;52.262;6.830;2023-06-24T10:59:46;26.00;41.00
67870;DHT22;54673;52.262;6.830;2023-06-24T11:02:19;26.00;41.20
67870;DHT22;54673;52.262;6.830;2023-06-24T11:04:53;26.00;41.10
67870;DHT22;54673;52.262;6.830;2023-06-24T11:07:24;26.10;41.10
67870;DHT22;54673;52.262;6.830;2023-06-24T11:12:22;26.10;41.40
67870;DHT22;54673;52.262;6.830;2023-06-24T11:14:48;26.10;41.10
67870;DHT22;54673;52.262;6.830;2023-06-24T11:17:14;26.20;41.20
67870;DHT22;54673;52.262;6.830;2023-06-24T11:19:40;26.10;41.00
67870;DHT22;54673;52.262;6.830;2023-06-24T11:22:07;26.20;41.30
67870;DHT22;54673;52.262;6.830;2023-06-24T11:24:33;26.10;40.50
67870;DHT22;54673;52.262;6.830;2023-06-24T11:26:59;26.10;40.70
67870;DHT22;54673;52.262;6.830;2023-06-24T11:29:28;26.10;40.00
67870;DHT22;54673;52.262;6.830;2023-06-24T11:31:54;26.10;38.90
67870;DHT22;54673;52.262;6.830;2023-06-24T11:34:20;26.10;38.80
67870;DHT22;54673;52.262;6.830;2023-06-24T11:36:48;26.10;38.70
67870;DHT22;54673;52.262;6.830;2023-06-24T11:39:27;26.10;38.80
67870;DHT22;54673;52.262;6.830;2023-06-24T11:41:53;26.20;39.30
67870;DHT22;54673;52.262;6.830;2023-06-24T11:44:20;26.20;38.70
67870;DHT22;54673;52.262;6.830;2023-06-24T11:46:46;26.20;38.20
67870;DHT22;54673;52.262;6.830;2023-06-24T11:49:11;26.20;38.10
67870;DHT22;54673;52.262;6.830;2023-06-24T11:51:46;26.20;37.60
67870;DHT22;54673;52.262;6.830;2023-06-24T11:54:15;26.20;37.60
67870;DHT22;54673;52.262;6.830;2023-06-24T11:56:42;26.20;37.60
67870;DHT22;54673;52.262;6.830;2023-06-24T11:59:16;26.20;37.50
67870;DHT22;54673;52.262;6.830;2023-06-24T12:01:43;26.20;37.30
67870;DHT22;54673;52.262;6.830;2023-06-24T12:04:12;26.10;37.30
67870;DHT22;54673;52.262;6.830;2023-06-24T12:06:41;26.20;37.30
67870;DHT22;54673;52.262;6.830;2023-06-24T12:09:10;26.30;37.30
67870;DHT22;54673;52.262;6.830;2023-06-24T12:11:36;26.20;37.40
67870;DHT22;54673;52.262;6.830;2023-06-24T12:14:02;26.30;37.60
67870;DHT22;54673;52.262;6.830;2023-06-24T12:16:28;26.30;37.70
67870;DHT22;54673;52.262;6.830;2023-06-24T12:18:54;26.30;37.70
67870;DHT22;54673;52.262;6.830;2023-06-24T12:21:19;26.30;37.80
67870;DHT22;54673;52.262;6.830;2023-06-24T12:23:45;26.30;37.70
67870;DHT22;54673;52.262;6.830;2023-06-24T12:26:11;26.30;37.50
67870;DHT22;54673;52.262;6.830;2023-06-24T12:28:37;26.30;37.50
67870;DHT22;54673;52.262;6.830;2023-06-24T12:31:03;26.30;37.60
67870;DHT22;54673;52.262;6.830;2023-06-24T12:33:29;26.30;37.80
67870;DHT22;54673;52.262;6.830;2023-06-24T12:35:55;26.30;37.80
67870;DHT22;54673;52.262;6.830;2023-06-24T12:38:20;26.30;38.10
67870;DHT22;54673;52.262;6.830;2023-06-24T12:40:46;26.30;38.20
67870;DHT22;54673;52.262;6.830;2023-06-24T12:43:13;26.30;38.20
67870;DHT22;54673;52.262;6.830;2023-06-24T12:45:43;26.30;38.20
67870;DHT22;54673;52.262;6.830;2023-06-24T12:48:09;26.30;38.30
67870;DHT22;54673;52.262;6.830;2023-06-24T12:50:35;26.40;38.40
67870;DHT22;54673;52.262;6.830;2023-06-24T12:53:01;26.30;38.30
67870;DHT22;54673;52.262;6.830;2023-06-24T12:55:28;26.40;38.40
67870;DHT22;54673;52.262;6.830;2023-06-24T12:57:54;26.40;38.40
67870;DHT22;54673;52.262;6.830;2023-06-24T13:00:21;26.40;38.30
67870;DHT22;54673;52.262;6.830;2023-06-24T13:02:47;26.40;38.20
67870;DHT22;54673;52.262;6.830;2023-06-24T13:05:12;26.50;38.40
67870;DHT22;54673;52.262;6.830;2023-06-24T13:07:38;26.40;38.50
67870;DHT22;54673;52.262;6.830;2023-06-24T13:10:04;26.40;38.90
67870;DHT22;54673;52.262;6.830;2023-06-24T13:12:32;26.40;39.10
67870;DHT22;54673;52.262;6.830;2023-06-24T13:14:57;26.50;39.20
67870;DHT22;54673;52.262;6.830;2023-06-24T13:17:23;26.50;39.30
67870;DHT22;54673;52.262;6.830;2023-06-24T13:19:50;26.50;39.40
67870;DHT22;54673;52.262;6.830;2023-06-24T13:22:15;26.50;39.20
67870;DHT22;54673;52.262;6.830;2023-06-24T13:24:41;26.50;39.50
67870;DHT22;54673;52.262;6.830;2023-06-24T13:27:07;26.50;39.10
67870;DHT22;54673;52.262;6.830;2023-06-24T13:29:33;26.50;39.10
67870;DHT22;54673;52.262;6.830;2023-06-24T13:31:58;26.40;39.20
67870;DHT22;54673;52.262;6.830;2023-06-24T13:34:24;26.40;39.20
67870;DHT22;54673;52.262;6.830;2023-06-24T13:36:50;26.50;39.20
67870;DHT22;54673;52.262;6.830;2023-06-24T13:39:15;26.60;39.30
67870;DHT22;54673;52.262;6.830;2023-06-24T13:41:44;26.60;39.40
67870;DHT22;54673;52.262;6.830;2023-06-24T13:44:10;26.60;39.50
67870;DHT22;54673;52.262;6.830;2023-06-24T13:46:36;26.60;39.60
67870;DHT22;54673;52.262;6.830;2023-06-24T13:49:02;26.60;39.80
67870;DHT22;54673;52.262;6.830;2023-06-24T13:51:28;26.60;39.80
67870;DHT22;54673;52.262;6.830;2023-06-24T13:53:54;26.60;39.90
67870;DHT22;54673;52.262;6.830;2023-06-24T13:56:21;26.60;40.00
67870;DHT22;54673;52.262;6.830;2023-06-24T13:58:48;26.60;40.20
67870;DHT22;54673;52.262;6.830;2023-06-24T14:01:14;26.60;40.40
67870;DHT22;54673;52.262;6.830;2023-06-24T14:03:41;26.60;40.50
67870;DHT22;54673;52.262;6.830;2023-06-24T14:06:07;26.60;40.70
67870;DHT22;54673;52.262;6.830;2023-06-24T14:08:33;26.60;40.70
67870;DHT22;54673;52.262;6.830;2023-06-24T14:10:59;26.60;40.80
67870;DHT22;54673;52.262;6.830;2023-06-24T14:13:26;26.60;40.90
67870;DHT22;54673;52.262;6.830;2023-06-24T14:15:52;26.60;40.90
67870;DHT22;54673;52.262;6.830;2023-06-24T14:18:18;26.60;40.90
67870;DHT22;54673;52.262;6.830;2023-06-24T14:20:44;26.70;40.90
67870;DHT22;54673;52.262;6.830;2023-06-24T14:23:10;27.10;41.10
67870;DHT22;54673;52.262;6.830;2023-06-24T14:25:35;26.70;40.90
67870;DHT22;54673;52.262;6.830;2023-06-24T14:28:03;26.70;40.90
67870;DHT22;54673;52.262;6.830;2023-06-24T14:30:29;26.70;41.00
67870;DHT22;54673;52.262;6.830;2023-06-24T14:32:54;26.70;41.10
67870;DHT22;54673;52.262;6.830;2023-06-24T14:35:20;26.70;41.40
67870;DHT22;54673;52.262;6.830;2023-06-24T14:37:45;26.60;41.60
67870;DHT22;54673;52.262;6.830;2023-06-24T14:40:11;26.60;41.60
67870;DHT22;54673;52.262;6.830;2023-06-24T14:42:37;26.60;41.70
67870;DHT22;54673;52.262;6.830;2023-06-24T14:45:02;26.60;41.60
67870;DHT22;54673;52.262;6.830;2023-06-24T14:47:28;26.60;41.60
67870;DHT22;54673;52.262;6.830;2023-06-24T14:49:54;26.60;41.70
67870;DHT22;54673;52.262;6.830;2023-06-24T14:52:19;26.50;41.90
67870;DHT22;54673;52.262;6.830;2023-06-24T14:54:46;26.40;41.90
67870;DHT22;54673;52.262;6.830;2023-06-24T14:57:12;26.60;42.10
67870;DHT22;54673;52.262;6.830;2023-06-24T14:59:38;26.60;42.20
67870;DHT22;54673;52.262;6.830;2023-06-24T15:02:04;26.60;42.30
67870;DHT22;54673;52.262;6.830;2023-06-24T15:04:29;26.70;42.50
67870;DHT22;54673;52.262;6.830;2023-06-24T15:06:55;26.60;42.50
67870;DHT22;54673;52.262;6.830;2023-06-24T15:09:22;26.60;42.40
67870;DHT22;54673;52.262;6.830;2023-06-24T15:11:48;26.60;42.60
67870;DHT22;54673;52.262;6.830;2023-06-24T15:14:14;26.60;42.80
67870;DHT22;54673;52.262;6.830;2023-06-24T15:16:39;26.60;42.90
67870;DHT22;54673;52.262;6.830;2023-06-24T15:19:05;26.60;42.90
67870;DHT22;54673;52.262;6.830;2023-06-24T15:21:30;26.60;42.90
67870;DHT22;54673;52.262;6.830;2023-06-24T15:23:56;26.60;42.90
67870;DHT22;54673;52.262;6.830;2023-06-24T15:26:21;26.60;42.90
67870;DHT22;54673;52.262;6.830;2023-06-24T15:28:47;26.60;43.10
67870;DHT22;54673;52.262;6.830;2023-06-24T15:31:13;26.60;43.30
67870;DHT22;54673;52.262;6.830;2023-06-24T15:33:39;26.70;43.60
67870;DHT22;54673;52.262;6.830;2023-06-24T15:36:04;26.70;43.60
67870;DHT22;54673;52.262;6.830;2023-06-24T15:38:30;26.70;43.70
67870;DHT22;54673;52.262;6.830;2023-06-24T15:40:55;26.70;44.90
67870;DHT22;54673;52.262;6.830;2023-06-24T15:43:21;26.60;44.10
67870;DHT22;54673;52.262;6.830;2023-06-24T15:45:47;26.60;44.50
67870;DHT22;54673;52.262;6.830;2023-06-24T15:48:12;26.70;44.90
67870;DHT22;54673;52.262;6.830;2023-06-24T15:50:39;26.60;44.90
67870;DHT22;54673;52.262;6.830;2023-06-24T15:53:04;26.70;45.10